createdAt,value
2018-06-09T00:02:39.187Z,1.20
2018-06-09T00:05:32.645Z,0.90
2018-06-09T00:08:07.515Z,1.72
2018-06-09T00:10:42.789Z,0.90
2018-06-09T00:13:17.582Z,1.00
2018-06-09T00:15:52.476Z,1.10
2018-06-09T00:18:27.318Z,1.10
2018-06-09T00:21:01.607Z,1.05
2018-06-09T00:23:36.417Z,0.90
2018-06-09T00:26:11.212Z,1.00
2018-06-09T00:28:45.479Z,1.00
2018-06-09T00:31:20.250Z,1.02
2018-06-09T00:33:54.530Z,1.50
2018-06-09T00:36:29.316Z,1.20
2018-06-09T00:39:06.378Z,1.10
2018-06-09T00:41:41.176Z,1.20
2018-06-09T00:44:16.000Z,1.70
2018-06-09T00:46:51.237Z,1.23
2018-06-09T00:49:26.013Z,1.07
2018-06-09T00:52:00.883Z,1.30
2018-06-09T00:54:36.692Z,1.42
2018-06-09T00:57:10.925Z,0.90
2018-06-09T00:59:45.660Z,1.07
2018-06-09T01:02:24.142Z,1.42
2018-06-09T01:04:58.360Z,1.20
2018-06-09T01:07:32.611Z,1.00
2018-06-09T01:10:06.982Z,1.00
2018-06-09T01:12:41.804Z,1.30
2018-06-09T01:15:16.024Z,1.20
2018-06-09T01:17:50.819Z,1.30
2018-06-09T01:20:25.158Z,1.20
2018-06-09T01:22:59.410Z,1.33
2018-06-09T01:25:33.145Z,1.10
2018-06-09T01:28:08.384Z,1.30
2018-06-09T01:30:44.221Z,1.67
2018-06-09T01:33:18.491Z,1.60
2018-06-09T01:35:52.719Z,1.40
2018-06-09T01:38:27.979Z,1.47
2018-06-09T01:41:02.699Z,1.50
2018-06-09T01:43:37.454Z,1.43
2018-06-09T01:46:12.235Z,1.40
2018-06-09T01:48:46.463Z,1.40
2018-06-09T01:51:20.836Z,1.60
2018-06-09T01:53:56.140Z,1.43
2018-06-09T01:56:31.400Z,1.70
2018-06-09T01:59:05.694Z,1.27
2018-06-09T02:01:39.950Z,1.47
2018-06-09T02:04:14.186Z,1.63
2018-06-09T02:06:48.402Z,2.00
2018-06-09T02:09:22.621Z,2.10
2018-06-09T02:11:56.855Z,1.50
2018-06-09T02:14:32.105Z,1.67
2018-06-09T02:17:06.345Z,2.07
2018-06-09T02:19:40.589Z,2.30
2018-06-09T02:22:15.887Z,1.97
2018-06-09T02:24:51.104Z,1.87
2018-06-09T02:27:25.308Z,1.90
2018-06-09T02:30:01.670Z,1.70
2018-06-09T02:32:35.426Z,2.00
2018-06-09T02:35:24.258Z,2.10
2018-06-09T02:37:58.608Z,1.80
2018-06-09T02:40:34.070Z,2.13
2018-06-09T02:43:09.351Z,2.03
2018-06-09T02:45:45.608Z,2.27
2018-06-09T02:48:19.822Z,1.60
2018-06-09T02:50:54.055Z,2.20
2018-06-09T02:53:28.292Z,1.73
2018-06-09T02:56:02.536Z,1.63
2018-06-09T02:58:36.273Z,1.77
2018-06-09T03:01:11.559Z,1.90
2018-06-09T03:03:46.837Z,1.90
2018-06-09T03:06:21.118Z,2.10
2018-06-09T03:08:55.396Z,1.93
2018-06-09T03:11:29.618Z,1.80
2018-06-09T03:14:03.929Z,1.63
2018-06-09T03:16:38.168Z,1.70
2018-06-09T03:19:12.456Z,1.93
2018-06-09T03:21:46.706Z,1.80
2018-06-09T03:24:20.960Z,1.50
2018-06-09T03:26:55.773Z,2.30
2018-06-09T03:29:29.525Z,2.20
2018-06-09T03:32:03.783Z,1.77
2018-06-09T03:34:38.602Z,1.87
2018-06-09T03:37:13.575Z,2.00
2018-06-09T03:39:48.400Z,1.95
2018-06-09T03:42:24.217Z,2.20
2018-06-09T03:44:59.049Z,1.90
2018-06-09T03:47:34.849Z,2.17
2018-06-09T03:50:09.676Z,1.92
2018-06-09T03:52:45.553Z,2.42
2018-06-09T03:55:20.363Z,2.02
2018-06-09T03:57:55.351Z,2.08
2018-06-09T04:00:30.771Z,2.00
2018-06-09T04:03:23.450Z,2.20
2018-06-09T04:05:58.420Z,1.60
2018-06-09T04:08:33.196Z,2.10
2018-06-09T04:11:08.189Z,1.70
2018-06-09T04:13:42.971Z,1.80
2018-06-09T04:16:17.779Z,1.57
2018-06-09T04:18:52.562Z,1.98
2018-06-09T04:21:27.380Z,1.55
2018-06-09T04:24:02.190Z,1.57
2018-06-09T04:26:36.955Z,1.40
2018-06-09T04:29:11.756Z,1.72
2018-06-09T04:31:46.567Z,1.50
2018-06-09T04:34:22.372Z,1.55
2018-06-09T04:36:57.169Z,1.30
2018-06-09T04:39:31.963Z,1.47
2018-06-09T04:42:06.756Z,1.45
2018-06-09T04:44:41.542Z,1.32
2018-06-09T04:47:16.299Z,1.45
2018-06-09T04:49:53.124Z,1.60
2018-06-09T04:52:27.924Z,1.55
2018-06-09T04:55:03.744Z,1.75
2018-06-09T04:57:38.543Z,1.55
2018-06-09T05:00:14.344Z,1.32
2018-06-09T05:02:49.160Z,1.47
2018-06-09T05:05:26.641Z,1.43
2018-06-09T05:08:01.149Z,1.50
2018-06-09T05:10:36.102Z,1.30
2018-06-09T05:13:10.574Z,1.53
2018-06-09T05:15:45.130Z,1.33
2018-06-09T05:18:19.803Z,1.40
2018-06-09T05:20:54.327Z,1.50
2018-06-09T05:23:29.101Z,1.42
2018-06-09T05:26:03.930Z,2.77
2018-06-09T05:28:39.259Z,1.60
2018-06-09T05:31:14.027Z,1.77
2018-06-09T05:33:48.841Z,2.02
2018-06-09T05:36:23.661Z,1.70
2018-06-09T05:38:59.604Z,1.57
2018-06-09T05:41:34.480Z,1.62
2018-06-09T05:44:10.311Z,1.98
2018-06-09T05:46:45.157Z,1.45
2018-06-09T05:49:19.957Z,1.50
2018-06-09T05:51:54.750Z,1.25
2018-06-09T05:54:29.543Z,1.40
2018-06-09T05:57:04.352Z,1.50
2018-06-09T05:59:40.133Z,1.70
2018-06-09T06:02:14.956Z,1.30
2018-06-09T06:04:49.772Z,1.30
2018-06-09T06:07:28.488Z,1.57
2018-06-09T06:10:03.248Z,1.50
2018-06-09T06:12:38.054Z,2.02
2018-06-09T06:15:12.873Z,1.80
2018-06-09T06:17:47.396Z,1.60
2018-06-09T06:20:22.912Z,1.87
2018-06-09T06:22:57.401Z,2.40
2018-06-09T06:25:31.935Z,1.80
2018-06-09T06:28:05.947Z,2.00
2018-06-09T06:30:40.452Z,2.13
2018-06-09T06:33:15.453Z,2.57
2018-06-09T06:35:49.951Z,2.37
2018-06-09T06:38:24.540Z,2.30
2018-06-09T06:40:58.561Z,2.20
2018-06-09T06:43:33.073Z,1.90
2018-06-09T06:46:07.587Z,1.53
2018-06-09T06:48:43.112Z,1.40
2018-06-09T06:51:17.604Z,1.67
2018-06-09T06:53:52.107Z,1.63
2018-06-09T06:56:26.670Z,1.23
2018-06-09T06:59:01.282Z,1.63
2018-06-09T07:01:35.764Z,1.40
2018-06-09T07:04:11.301Z,1.13
2018-06-09T07:06:46.796Z,1.50
2018-06-09T07:09:21.276Z,1.60
2018-06-09T07:11:55.835Z,1.30
2018-06-09T07:14:30.351Z,1.50
2018-06-09T07:17:04.884Z,1.33
2018-06-09T07:19:39.391Z,0.93
2018-06-09T07:22:13.978Z,1.27
2018-06-09T07:24:49.648Z,1.37
2018-06-09T07:27:24.141Z,1.30
2018-06-09T07:29:58.612Z,1.33
2018-06-09T07:32:33.123Z,1.20
2018-06-09T07:35:07.698Z,1.27
2018-06-09T07:37:42.355Z,1.50
2018-06-09T07:40:19.697Z,1.40
2018-06-09T07:42:53.697Z,1.30
2018-06-09T07:45:28.167Z,1.70
2018-06-09T07:48:02.747Z,1.67
2018-06-09T07:50:37.761Z,1.30
2018-06-09T07:53:12.326Z,1.87
2018-06-09T07:55:47.028Z,1.30
2018-06-09T07:58:21.029Z,1.63
2018-06-09T08:00:55.544Z,1.23
2018-06-09T08:03:31.027Z,1.40
2018-06-09T08:09:42.342Z,1.60
2018-06-09T08:12:43.238Z,1.00
2018-06-09T08:15:33.332Z,0.93
2018-06-09T08:18:10.612Z,1.20
2018-06-09T08:20:44.593Z,1.17
2018-06-09T08:23:19.182Z,1.27
2018-06-09T08:25:53.803Z,1.33
2018-06-09T08:28:28.342Z,1.17
2018-06-09T08:31:02.922Z,1.40
2018-06-09T08:33:37.507Z,1.50
2018-06-09T08:36:12.214Z,1.30
2018-06-09T08:38:46.906Z,1.40
2018-06-09T08:41:21.659Z,1.53
2018-06-09T08:43:56.200Z,2.63
2018-06-09T08:46:30.785Z,1.60
2018-06-09T08:49:05.299Z,1.73
2018-06-09T08:51:41.099Z,1.57
2018-06-09T08:54:15.618Z,1.40
2018-06-09T08:56:50.195Z,1.20
2018-06-09T08:59:25.775Z,2.03
2018-06-09T09:02:01.312Z,2.37
2018-06-09T09:04:35.734Z,1.30
2018-06-09T09:07:10.232Z,2.17
2018-06-09T09:09:44.666Z,1.50
2018-06-09T09:12:20.167Z,1.17
2018-06-09T09:14:54.167Z,1.23
2018-06-09T09:17:28.691Z,1.20
2018-06-09T09:20:03.140Z,1.30
2018-06-09T09:22:38.610Z,1.33
2018-06-09T09:25:13.043Z,1.40
2018-06-09T09:27:48.503Z,1.30
2018-06-09T09:30:22.954Z,2.07
2018-06-09T09:32:58.474Z,1.33
2018-06-09T09:35:32.936Z,1.07
2018-06-09T09:38:08.454Z,0.87
2018-06-09T09:40:42.858Z,1.70
2018-06-09T09:43:16.875Z,1.20
2018-06-09T09:45:51.301Z,2.73
2018-06-09T09:48:25.768Z,1.40
2018-06-09T09:51:00.284Z,1.20
2018-06-09T09:53:34.695Z,1.50
2018-06-09T09:56:09.168Z,0.97
2018-06-09T09:58:43.160Z,1.10
2018-06-09T10:01:17.588Z,1.40
2018-06-09T10:03:53.107Z,1.30
2018-06-09T10:06:27.508Z,1.43
2018-06-09T10:09:01.962Z,1.40
2018-06-09T10:11:36.521Z,1.20
2018-06-09T10:17:25.570Z,1.07
2018-06-09T10:20:07.515Z,1.10
2018-06-09T10:22:41.537Z,1.50
2018-06-09T10:25:16.021Z,1.20
2018-06-09T10:27:50.470Z,1.17
2018-06-09T10:30:24.915Z,1.10
2018-06-09T10:32:59.387Z,1.17
2018-06-09T10:35:33.852Z,1.37
2018-06-09T10:38:08.330Z,1.40
2018-06-09T10:40:42.781Z,1.40
2018-06-09T10:43:17.214Z,1.40
2018-06-09T10:45:51.711Z,1.80
2018-06-09T10:48:26.159Z,1.20
2018-06-09T10:51:00.584Z,1.53
2018-06-09T10:53:35.071Z,1.40
2018-06-09T10:56:09.543Z,1.87
2018-06-09T10:58:44.038Z,1.30
2018-06-09T11:01:18.461Z,1.60
2018-06-09T11:03:52.935Z,1.27
2018-06-09T11:06:28.439Z,1.60
2018-06-09T11:09:02.450Z,1.13
2018-06-09T11:11:36.373Z,1.20
2018-06-09T11:14:10.870Z,2.13
2018-06-09T11:16:45.288Z,1.77
2018-06-09T11:19:19.761Z,1.50
2018-06-09T11:21:54.256Z,1.30
2018-06-09T11:24:28.727Z,1.47
2018-06-09T11:27:03.399Z,1.50
2018-06-09T11:29:37.864Z,1.30
2018-06-09T11:32:12.291Z,1.50
2018-06-09T11:34:46.747Z,1.50
2018-06-09T11:37:21.196Z,1.37
2018-06-09T11:39:55.652Z,1.30
2018-06-09T11:42:30.112Z,1.40
2018-06-09T11:45:04.610Z,1.53
2018-06-09T11:47:38.525Z,1.40
2018-06-09T11:50:12.996Z,1.30
2018-06-09T11:52:47.443Z,1.83
2018-06-09T11:55:21.947Z,1.27
2018-06-09T11:57:55.908Z,1.40
2018-06-09T12:00:30.377Z,1.70
2018-06-09T12:03:04.744Z,1.47
2018-06-09T12:05:39.257Z,1.63
2018-06-09T12:08:13.809Z,1.57
2018-06-09T12:10:48.264Z,1.60
2018-06-09T12:13:22.722Z,1.70
2018-06-09T12:15:57.152Z,1.60
2018-06-09T12:18:31.592Z,1.57
2018-06-09T12:21:07.050Z,2.13
2018-06-09T12:23:42.473Z,2.00
2018-06-09T12:26:17.324Z,1.90
2018-06-09T12:28:52.066Z,1.70
2018-06-09T12:31:26.824Z,1.77
2018-06-09T12:34:01.519Z,1.98
2018-06-09T12:36:37.243Z,1.90
2018-06-09T12:39:11.976Z,2.00
2018-06-09T12:41:46.796Z,1.77
2018-06-09T12:44:21.487Z,1.70
2018-06-09T12:46:55.772Z,1.60
2018-06-09T12:49:30.548Z,1.70
2018-06-09T12:52:06.318Z,1.85
2018-06-09T12:54:40.999Z,1.80
2018-06-09T12:57:15.799Z,1.90
2018-06-09T12:59:50.544Z,2.10
2018-06-09T13:02:25.301Z,6.97
2018-06-09T13:05:00.009Z,1.90
2018-06-09T13:07:34.289Z,1.95
2018-06-09T13:10:09.012Z,2.25
2018-06-09T13:12:43.764Z,1.80
2018-06-09T13:15:18.456Z,1.82
2018-06-09T13:17:53.281Z,2.00
2018-06-09T13:20:29.112Z,1.72
2018-06-09T13:23:03.858Z,2.02
2018-06-09T13:25:38.591Z,1.75
2018-06-09T13:28:13.373Z,1.90
2018-06-09T13:30:47.576Z,2.08
2018-06-09T13:33:21.851Z,2.05
2018-06-09T13:35:56.640Z,1.90
2018-06-09T13:38:31.580Z,1.75
2018-06-09T13:41:06.347Z,2.12
2018-06-09T13:43:41.121Z,2.30
2018-06-09T13:46:15.887Z,1.55
2018-06-09T13:48:50.619Z,1.85
2018-06-09T13:51:25.381Z,1.82
2018-06-09T13:54:00.089Z,1.90
2018-06-09T13:56:34.859Z,2.20
2018-06-09T13:59:09.991Z,1.72
2018-06-09T14:01:45.818Z,1.90
2018-06-09T14:04:20.512Z,1.80
2018-06-09T14:06:55.319Z,1.77
2018-06-09T14:09:29.680Z,1.90
2018-06-09T14:12:05.474Z,1.92
2018-06-09T14:14:41.182Z,2.42
2018-06-09T14:17:15.963Z,1.70
2018-06-09T14:19:50.704Z,1.72
2018-06-09T14:22:25.481Z,1.82
2018-06-09T14:24:59.710Z,2.33
2018-06-09T14:27:35.531Z,2.52
2018-06-09T14:30:10.224Z,2.17
2018-06-09T14:32:45.044Z,2.00
2018-06-09T14:35:19.938Z,1.82
2018-06-09T14:37:55.711Z,1.90
2018-06-09T14:40:30.427Z,1.70
2018-06-09T14:43:05.210Z,1.90
2018-06-09T14:45:39.940Z,1.98
2018-06-09T14:48:15.763Z,1.77
2018-06-09T14:50:50.459Z,1.87
2018-06-09T14:53:25.283Z,1.80
2018-06-09T14:56:00.011Z,1.82
2018-06-09T14:58:34.820Z,1.85
2018-06-09T15:01:09.596Z,1.75
2018-06-09T15:03:45.348Z,1.90
2018-06-09T15:06:20.056Z,1.90
2018-06-09T15:08:54.807Z,2.37
2018-06-09T15:11:29.586Z,2.17
2018-06-09T15:14:04.569Z,2.27
2018-06-09T15:16:39.309Z,1.70
2018-06-09T15:19:14.049Z,1.72
2018-06-09T15:21:48.777Z,1.72
2018-06-09T15:24:24.586Z,2.10
2018-06-09T15:26:59.371Z,1.70
2018-06-09T15:29:34.123Z,1.75
2018-06-09T15:32:09.989Z,1.95
2018-06-09T15:34:44.696Z,1.85
2018-06-09T15:37:19.506Z,2.12
2018-06-09T15:39:54.247Z,1.77
2018-06-09T15:42:28.993Z,2.25
2018-06-09T15:45:03.773Z,1.95
2018-06-09T15:47:39.507Z,1.67
2018-06-09T15:50:15.274Z,2.05
2018-06-09T15:52:50.053Z,2.12
2018-06-09T15:55:24.752Z,2.33
2018-06-09T15:57:59.509Z,2.15
2018-06-09T16:00:34.263Z,2.67
2018-06-09T16:03:08.988Z,2.40
2018-06-09T16:05:44.688Z,2.37
2018-06-09T16:08:19.440Z,2.70
2018-06-09T16:10:55.224Z,3.10
2018-06-09T16:13:29.944Z,3.10
2018-06-09T16:16:04.263Z,2.60
2018-06-09T16:18:38.449Z,2.77
2018-06-09T16:21:14.204Z,2.42
2018-06-09T16:23:48.891Z,2.50
2018-06-09T16:26:24.670Z,2.10
2018-06-09T16:28:59.364Z,2.25
2018-06-09T16:31:34.102Z,2.33
2018-06-09T16:34:08.897Z,1.90
2018-06-09T16:36:43.643Z,2.08
2018-06-09T16:39:19.377Z,1.80
2018-06-09T16:41:54.141Z,2.00
2018-06-09T16:44:28.872Z,2.20
2018-06-09T16:47:04.610Z,2.05
2018-06-09T16:49:39.347Z,2.02
2018-06-09T16:52:14.075Z,1.85
2018-06-09T16:54:48.783Z,1.95
2018-06-09T16:57:23.530Z,1.90
2018-06-09T16:59:58.277Z,1.98
2018-06-09T17:02:33.055Z,2.00
2018-06-09T17:05:08.838Z,1.72
2018-06-09T17:07:43.566Z,1.57
2018-06-09T17:10:19.328Z,1.50
2018-06-09T17:12:54.083Z,1.55
2018-06-09T17:15:28.861Z,1.52
2018-06-09T17:18:03.596Z,1.95
2018-06-09T17:20:38.350Z,1.80
2018-06-09T17:23:13.051Z,1.67
2018-06-09T17:25:47.785Z,1.80
2018-06-09T17:28:23.555Z,2.25
2018-06-09T17:30:57.865Z,2.33
2018-06-09T17:33:33.619Z,2.08
2018-06-09T17:36:08.368Z,2.83
2018-06-09T17:38:43.116Z,2.95
2018-06-09T17:41:18.026Z,2.80
2018-06-09T17:43:53.800Z,6.42
2018-06-09T17:46:28.536Z,8.08
2018-06-09T17:49:03.256Z,5.08
2018-06-09T17:51:37.984Z,5.72
2018-06-09T17:54:13.732Z,2.90
2018-06-09T17:56:48.769Z,2.90
2018-06-09T17:59:24.531Z,2.45
2018-06-09T18:01:59.228Z,3.02
2018-06-09T18:04:33.964Z,2.70
2018-06-09T18:07:08.661Z,3.35
2018-06-09T18:09:43.455Z,2.62
2018-06-09T18:12:19.220Z,3.00
2018-06-09T18:14:55.104Z,3.00
2018-06-09T18:17:29.795Z,3.30
2018-06-09T18:20:04.609Z,3.52
2018-06-09T18:22:39.339Z,3.15
2018-06-09T18:25:14.076Z,3.47
2018-06-09T18:27:49.293Z,3.15
2018-06-09T18:30:24.041Z,3.17
2018-06-09T18:32:58.783Z,3.20
2018-06-09T18:35:33.578Z,3.25
2018-06-09T18:38:08.290Z,3.05
2018-06-09T18:40:43.096Z,3.70
2018-06-09T18:43:23.515Z,3.17
2018-06-09T18:46:09.336Z,3.67
2018-06-09T18:48:45.155Z,3.22
2018-06-09T18:51:19.875Z,2.90
2018-06-09T18:53:54.116Z,3.10
2018-06-09T18:56:28.843Z,3.40
2018-06-09T18:59:04.017Z,3.10
2018-06-09T19:01:39.425Z,3.40
2018-06-09T19:04:14.211Z,3.40
2018-06-09T19:06:48.913Z,5.45
2018-06-09T19:09:23.683Z,7.47
2018-06-09T19:11:58.427Z,4.08
2018-06-09T19:14:34.199Z,3.35
2018-06-09T19:17:08.910Z,3.77
2018-06-09T19:19:43.676Z,4.08
2018-06-09T19:22:18.413Z,4.03
2018-06-09T19:24:52.650Z,3.50
2018-06-09T19:27:27.468Z,3.90
2018-06-09T19:30:03.242Z,3.75
2018-06-09T19:32:38.026Z,3.67
2018-06-09T19:35:12.795Z,4.30
2018-06-09T19:37:48.623Z,3.80
2018-06-09T19:40:23.397Z,4.28
2018-06-09T19:42:58.149Z,3.98
2018-06-09T19:45:33.595Z,3.72
2018-06-09T19:48:14.432Z,3.77
2018-06-09T19:50:50.886Z,3.98
2018-06-09T19:53:25.889Z,3.87
2018-06-09T19:56:08.989Z,3.80
2018-06-09T19:58:43.373Z,4.10
2018-06-09T20:01:18.118Z,4.92
2018-06-09T20:03:53.839Z,4.80
2018-06-09T20:06:28.605Z,4.50
2018-06-09T20:09:04.617Z,4.62
2018-06-09T20:11:39.391Z,3.90
2018-06-09T20:14:14.116Z,3.42
2018-06-09T20:16:48.918Z,5.08
2018-06-09T20:19:23.651Z,5.10
2018-06-09T20:21:58.414Z,4.67
2018-06-09T20:24:33.111Z,4.58
2018-06-09T20:27:07.879Z,4.70
2018-06-09T20:29:42.598Z,4.40
2018-06-09T20:32:17.432Z,4.50
2018-06-09T20:34:53.852Z,4.08
2018-06-09T20:37:28.751Z,3.87
2018-06-09T20:40:05.456Z,3.85
2018-06-09T20:42:40.969Z,4.58
2018-06-09T20:45:15.712Z,3.12
2018-06-09T20:47:50.467Z,3.72
2018-06-09T20:50:25.211Z,4.17
2018-06-09T20:53:00.035Z,3.87
2018-06-09T20:55:34.287Z,3.52
2018-06-09T20:58:09.064Z,2.75
2018-06-09T21:00:43.759Z,2.42
2018-06-09T21:03:18.514Z,2.90
2018-06-09T21:05:53.234Z,2.80
2018-06-09T21:08:28.165Z,3.10
2018-06-09T21:11:02.871Z,2.90
2018-06-09T21:13:37.627Z,2.95
2018-06-09T21:16:12.327Z,3.37
2018-06-09T21:18:47.120Z,4.10
2018-06-09T21:21:22.840Z,4.20
2018-06-09T21:23:58.592Z,4.03
2018-06-09T21:26:39.529Z,4.60
2018-06-09T21:29:19.652Z,5.30
2018-06-09T21:31:54.375Z,5.17
2018-06-09T21:34:44.269Z,6.37
2018-06-09T21:40:22.568Z,6.50
2018-06-09T21:43:06.600Z,6.70
2018-06-09T21:45:47.686Z,6.08
2018-06-09T21:48:22.005Z,5.83
2018-06-09T21:51:07.144Z,5.90
2018-06-09T21:54:04.668Z,6.25
2018-06-09T21:56:47.464Z,5.67
2018-06-09T21:59:35.884Z,5.70
2018-06-09T22:02:10.910Z,6.28
2018-06-09T22:04:45.555Z,6.47
2018-06-09T22:07:20.773Z,5.95
2018-06-09T22:09:55.600Z,5.92
2018-06-09T22:12:29.931Z,5.85
2018-06-09T22:15:05.876Z,5.75
2018-06-09T22:17:41.149Z,5.75
2018-06-09T22:20:16.105Z,5.65
2018-06-09T22:22:50.919Z,5.87
2018-06-09T22:25:30.841Z,5.22
2018-06-09T22:28:05.640Z,5.65
2018-06-09T22:30:40.351Z,5.50
2018-06-09T22:33:15.078Z,5.72
2018-06-09T22:35:49.811Z,6.67
2018-06-09T22:38:25.556Z,6.40
2018-06-09T22:41:00.301Z,6.10
2018-06-09T22:43:34.549Z,7.17
2018-06-09T22:46:09.272Z,7.00
2018-06-09T22:48:43.995Z,6.45
2018-06-09T22:51:18.725Z,7.83
2018-06-09T22:53:53.516Z,7.60
2018-06-09T22:56:28.228Z,7.22
2018-06-09T22:59:02.985Z,7.22
2018-06-09T23:01:37.718Z,7.10
2018-06-09T23:04:12.541Z,7.25
2018-06-09T23:06:47.733Z,7.30
2018-06-09T23:09:22.502Z,6.92
2018-06-09T23:11:57.205Z,6.97
2018-06-09T23:14:31.443Z,7.70
2018-06-09T23:17:07.134Z,6.67
2018-06-09T23:19:41.959Z,6.45
2018-06-09T23:22:16.685Z,6.53
2018-06-09T23:24:51.474Z,6.47
2018-06-09T23:27:26.126Z,6.58
2018-06-09T23:30:00.899Z,6.20
2018-06-09T23:32:35.660Z,6.75
2018-06-09T23:35:10.399Z,6.25
2018-06-09T23:37:45.065Z,7.25
2018-06-09T23:40:19.911Z,7.30
2018-06-09T23:42:54.612Z,7.60
2018-06-09T23:45:29.381Z,7.80
2018-06-09T23:48:04.138Z,6.85
2018-06-09T23:50:38.904Z,6.90
2018-06-09T23:53:13.644Z,7.67
2018-06-09T23:55:49.433Z,7.72
2018-06-09T23:58:24.170Z,8.28
